sensor_id;sensor_type;location;lat;lon;timestamp;P1;durP1;ratioP1;P2;durP2;ratioP2
69981;SDS011;57319;56.274;43.980;2023-07-31T00:00:29;1.13;;;1.10;;
69981;SDS011;57319;56.274;43.980;2023-07-31T00:02:54;2.17;;;1.00;;
69981;SDS011;57319;56.274;43.980;2023-07-31T00:05:20;1.10;;;1.10;;
69981;SDS011;57319;56.274;43.980;2023-07-31T00:07:46;5.10;;;0.82;;
69981;SDS011;57319;56.274;43.980;2023-07-31T00:10:12;1.90;;;1.10;;
69981;SDS011;57319;56.274;43.980;2023-07-31T00:12:38;4.05;;;1.10;;
69981;SDS011;57319;56.274;43.980;2023-07-31T00:15:07;2.85;;;1.38;;
69981;SDS011;57319;56.274;43.980;2023-07-31T00:17:33;1.67;;;1.00;;
69981;SDS011;57319;56.274;43.980;2023-07-31T00:19:59;1.27;;;1.10;;
69981;SDS011;57319;56.274;43.980;2023-07-31T00:22:24;3.15;;;1.00;;
69981;SDS011;57319;56.274;43.980;2023-07-31T00:24:51;2.33;;;1.20;;
69981;SDS011;57319;56.274;43.980;2023-07-31T00:27:17;3.78;;;1.00;;
69981;SDS011;57319;56.274;43.980;2023-07-31T00:29:43;9.43;;;1.40;;
69981;SDS011;57319;56.274;43.980;2023-07-31T00:32:08;1.40;;;1.08;;
69981;SDS011;57319;56.274;43.980;2023-07-31T00:34:34;2.80;;;1.00;;
69981;SDS011;57319;56.274;43.980;2023-07-31T00:37:00;3.60;;;1.30;;
69981;SDS011;57319;56.274;43.980;2023-07-31T00:39:25;4.28;;;1.35;;
69981;SDS011;57319;56.274;43.980;2023-07-31T00:41:51;11.02;;;1.50;;
69981;SDS011;57319;56.274;43.980;2023-07-31T00:44:17;8.30;;;2.15;;
69981;SDS011;57319;56.274;43.980;2023-07-31T00:46:42;1.20;;;1.20;;
69981;SDS011;57319;56.274;43.980;2023-07-31T00:49:08;2.78;;;1.20;;
69981;SDS011;57319;56.274;43.980;2023-07-31T00:51:34;6.47;;;1.42;;
69981;SDS011;57319;56.274;43.980;2023-07-31T00:54:00;6.75;;;1.25;;
69981;SDS011;57319;56.274;43.980;2023-07-31T00:56:25;3.03;;;1.35;;
69981;SDS011;57319;56.274;43.980;2023-07-31T00:58:52;10.20;;;1.40;;
69981;SDS011;57319;56.274;43.980;2023-07-31T01:01:18;2.20;;;1.20;;
69981;SDS011;57319;56.274;43.980;2023-07-31T01:03:44;3.53;;;1.00;;
69981;SDS011;57319;56.274;43.980;2023-07-31T01:11:56;2.60;;;1.63;;
69981;SDS011;57319;56.274;43.980;2023-07-31T01:14:24;2.42;;;1.60;;
69981;SDS011;57319;56.274;43.980;2023-07-31T01:16:50;8.23;;;1.88;;
69981;SDS011;57319;56.274;43.980;2023-07-31T01:19:17;3.78;;;1.83;;
69981;SDS011;57319;56.274;43.980;2023-07-31T01:27:34;1.40;;;1.40;;
69981;SDS011;57319;56.274;43.980;2023-07-31T01:30:06;1.35;;;1.35;;
69981;SDS011;57319;56.274;43.980;2023-07-31T01:32:42;1.67;;;1.58;;
69981;SDS011;57319;56.274;43.980;2023-07-31T01:35:09;13.65;;;1.60;;
69981;SDS011;57319;56.274;43.980;2023-07-31T01:37:35;8.88;;;1.67;;
69981;SDS011;57319;56.274;43.980;2023-07-31T01:40:01;6.53;;;1.42;;
69981;SDS011;57319;56.274;43.980;2023-07-31T01:42:30;3.30;;;1.60;;
69981;SDS011;57319;56.274;43.980;2023-07-31T01:44:56;2.05;;;1.50;;
69981;SDS011;57319;56.274;43.980;2023-07-31T01:47:21;5.25;;;1.30;;
69981;SDS011;57319;56.274;43.980;2023-07-31T01:49:48;7.60;;;1.20;;
69981;SDS011;57319;56.274;43.980;2023-07-31T01:52:14;1.75;;;1.63;;
69981;SDS011;57319;56.274;43.980;2023-07-31T01:54:39;3.35;;;1.52;;
69981;SDS011;57319;56.274;43.980;2023-07-31T01:57:05;2.28;;;1.30;;
69981;SDS011;57319;56.274;43.980;2023-07-31T01:59:31;2.28;;;1.30;;
69981;SDS011;57319;56.274;43.980;2023-07-31T02:01:57;1.33;;;1.33;;
69981;SDS011;57319;56.274;43.980;2023-07-31T02:04:22;16.45;;;1.95;;
69981;SDS011;57319;56.274;43.980;2023-07-31T02:06:48;1.10;;;1.10;;
69981;SDS011;57319;56.274;43.980;2023-07-31T02:09:14;2.20;;;1.30;;
69981;SDS011;57319;56.274;43.980;2023-07-31T02:11:39;2.42;;;1.30;;
69981;SDS011;57319;56.274;43.980;2023-07-31T02:14:05;1.20;;;1.20;;
69981;SDS011;57319;56.274;43.980;2023-07-31T02:16:31;5.25;;;1.40;;
69981;SDS011;57319;56.274;43.980;2023-07-31T02:18:57;21.50;;;2.05;;
69981;SDS011;57319;56.274;43.980;2023-07-31T02:21:22;1.30;;;1.30;;
69981;SDS011;57319;56.274;43.980;2023-07-31T02:23:48;1.23;;;1.20;;
69981;SDS011;57319;56.274;43.980;2023-07-31T02:26:14;1.25;;;1.20;;
69981;SDS011;57319;56.274;43.980;2023-07-31T02:28:39;1.52;;;1.40;;
69981;SDS011;57319;56.274;43.980;2023-07-31T02:31:08;1.52;;;1.42;;
69981;SDS011;57319;56.274;43.980;2023-07-31T02:33:33;6.75;;;1.27;;
69981;SDS011;57319;56.274;43.980;2023-07-31T02:35:59;1.23;;;1.15;;
69981;SDS011;57319;56.274;43.980;2023-07-31T02:38:25;1.30;;;1.20;;
69981;SDS011;57319;56.274;43.980;2023-07-31T02:40:50;0.90;;;0.90;;
69981;SDS011;57319;56.274;43.980;2023-07-31T02:43:16;3.40;;;1.05;;
69981;SDS011;57319;56.274;43.980;2023-07-31T02:45:41;2.17;;;0.95;;
69981;SDS011;57319;56.274;43.980;2023-07-31T02:48:07;1.75;;;0.90;;
69981;SDS011;57319;56.274;43.980;2023-07-31T02:50:33;1.02;;;1.02;;
69981;SDS011;57319;56.274;43.980;2023-07-31T02:52:59;0.93;;;0.63;;
69981;SDS011;57319;56.274;43.980;2023-07-31T02:55:24;1.25;;;0.77;;
69981;SDS011;57319;56.274;43.980;2023-07-31T02:57:50;0.93;;;0.93;;
69981;SDS011;57319;56.274;43.980;2023-07-31T03:00:17;0.70;;;0.63;;
69981;SDS011;57319;56.274;43.980;2023-07-31T03:02:43;0.70;;;0.70;;
69981;SDS011;57319;56.274;43.980;2023-07-31T03:05:09;1.75;;;0.60;;
69981;SDS011;57319;56.274;43.980;2023-07-31T03:07:34;0.68;;;0.68;;
69981;SDS011;57319;56.274;43.980;2023-07-31T03:10:00;0.68;;;0.68;;
69981;SDS011;57319;56.274;43.980;2023-07-31T03:12:26;0.70;;;0.70;;
69981;SDS011;57319;56.274;43.980;2023-07-31T03:14:51;0.68;;;0.68;;
69981;SDS011;57319;56.274;43.980;2023-07-31T03:17:17;0.60;;;0.60;;
69981;SDS011;57319;56.274;43.980;2023-07-31T03:19:43;2.85;;;0.80;;
69981;SDS011;57319;56.274;43.980;2023-07-31T03:22:08;1.65;;;0.70;;
69981;SDS011;57319;56.274;43.980;2023-07-31T03:24:34;0.70;;;0.70;;
69981;SDS011;57319;56.274;43.980;2023-07-31T03:27:00;1.48;;;0.85;;
69981;SDS011;57319;56.274;43.980;2023-07-31T03:29:25;1.90;;;0.80;;
69981;SDS011;57319;56.274;43.980;2023-07-31T03:31:51;1.77;;;0.70;;
69981;SDS011;57319;56.274;43.980;2023-07-31T03:34:17;0.60;;;0.60;;
69981;SDS011;57319;56.274;43.980;2023-07-31T03:36:42;0.70;;;0.70;;
69981;SDS011;57319;56.274;43.980;2023-07-31T03:39:08;0.75;;;0.75;;
69981;SDS011;57319;56.274;43.980;2023-07-31T03:41:34;0.77;;;0.60;;
69981;SDS011;57319;56.274;43.980;2023-07-31T03:43:59;1.52;;;0.70;;
69981;SDS011;57319;56.274;43.980;2023-07-31T03:46:25;0.60;;;0.60;;
69981;SDS011;57319;56.274;43.980;2023-07-31T03:48:51;0.63;;;0.63;;
69981;SDS011;57319;56.274;43.980;2023-07-31T03:51:16;0.52;;;0.52;;
69981;SDS011;57319;56.274;43.980;2023-07-31T03:53:43;1.65;;;0.70;;
69981;SDS011;57319;56.274;43.980;2023-07-31T03:56:10;0.80;;;0.80;;
69981;SDS011;57319;56.274;43.980;2023-07-31T03:58:36;0.90;;;0.70;;
69981;SDS011;57319;56.274;43.980;2023-07-31T04:01:02;0.75;;;0.75;;
69981;SDS011;57319;56.274;43.980;2023-07-31T04:03:29;0.77;;;0.77;;
69981;SDS011;57319;56.274;43.980;2023-07-31T04:05:55;0.65;;;0.65;;
69981;SDS011;57319;56.274;43.980;2023-07-31T04:08:22;0.68;;;0.68;;
69981;SDS011;57319;56.274;43.980;2023-07-31T04:10:48;0.43;;;0.43;;
69981;SDS011;57319;56.274;43.980;2023-07-31T04:13:14;0.63;;;0.63;;
69981;SDS011;57319;56.274;43.980;2023-07-31T04:15:39;1.23;;;0.70;;
69981;SDS011;57319;56.274;43.980;2023-07-31T04:18:05;0.85;;;0.85;;
69981;SDS011;57319;56.274;43.980;2023-07-31T04:20:31;0.65;;;0.65;;
69981;SDS011;57319;56.274;43.980;2023-07-31T04:22:57;0.75;;;0.75;;
69981;SDS011;57319;56.274;43.980;2023-07-31T04:25:22;0.80;;;0.60;;
69981;SDS011;57319;56.274;43.980;2023-07-31T04:27:48;0.57;;;0.50;;
69981;SDS011;57319;56.274;43.980;2023-07-31T04:30:13;0.50;;;0.50;;
69981;SDS011;57319;56.274;43.980;2023-07-31T04:32:39;0.55;;;0.40;;
69981;SDS011;57319;56.274;43.980;2023-07-31T04:35:05;0.63;;;0.40;;
69981;SDS011;57319;56.274;43.980;2023-07-31T04:37:31;0.40;;;0.40;;
69981;SDS011;57319;56.274;43.980;2023-07-31T04:39:56;0.50;;;0.50;;
69981;SDS011;57319;56.274;43.980;2023-07-31T04:42:22;0.45;;;0.45;;
69981;SDS011;57319;56.274;43.980;2023-07-31T04:44:48;0.55;;;0.55;;
69981;SDS011;57319;56.274;43.980;2023-07-31T04:47:13;1.35;;;0.65;;
69981;SDS011;57319;56.274;43.980;2023-07-31T04:49:39;1.08;;;0.50;;
69981;SDS011;57319;56.274;43.980;2023-07-31T04:52:05;0.40;;;0.40;;
69981;SDS011;57319;56.274;43.980;2023-07-31T04:54:31;1.65;;;0.60;;
69981;SDS011;57319;56.274;43.980;2023-07-31T04:56:56;3.03;;;0.50;;
69981;SDS011;57319;56.274;43.980;2023-07-31T04:59:22;3.50;;;0.60;;
69981;SDS011;57319;56.274;43.980;2023-07-31T05:01:48;0.50;;;0.50;;
69981;SDS011;57319;56.274;43.980;2023-07-31T05:04:14;2.38;;;0.70;;
69981;SDS011;57319;56.274;43.980;2023-07-31T05:06:40;0.55;;;0.55;;
69981;SDS011;57319;56.274;43.980;2023-07-31T05:09:06;0.65;;;0.65;;
69981;SDS011;57319;56.274;43.980;2023-07-31T05:11:32;0.65;;;0.65;;
69981;SDS011;57319;56.274;43.980;2023-07-31T05:13:57;0.80;;;0.60;;
69981;SDS011;57319;56.274;43.980;2023-07-31T05:16:23;0.82;;;0.60;;
69981;SDS011;57319;56.274;43.980;2023-07-31T05:18:49;0.70;;;0.70;;
69981;SDS011;57319;56.274;43.980;2023-07-31T05:21:14;0.90;;;0.90;;
69981;SDS011;57319;56.274;43.980;2023-07-31T05:23:40;0.73;;;0.65;;
69981;SDS011;57319;56.274;43.980;2023-07-31T05:26:06;0.45;;;0.45;;
69981;SDS011;57319;56.274;43.980;2023-07-31T05:28:34;3.85;;;0.80;;
69981;SDS011;57319;56.274;43.980;2023-07-31T05:31:00;0.60;;;0.60;;
69981;SDS011;57319;56.274;43.980;2023-07-31T05:33:27;0.52;;;0.52;;
69981;SDS011;57319;56.274;43.980;2023-07-31T05:35:53;0.70;;;0.70;;
69981;SDS011;57319;56.274;43.980;2023-07-31T05:38:18;1.80;;;0.90;;
69981;SDS011;57319;56.274;43.980;2023-07-31T05:40:44;1.27;;;0.70;;
69981;SDS011;57319;56.274;43.980;2023-07-31T05:43:10;0.82;;;0.80;;
69981;SDS011;57319;56.274;43.980;2023-07-31T05:45:35;0.60;;;0.60;;
69981;SDS011;57319;56.274;43.980;2023-07-31T05:48:02;0.60;;;0.60;;
69981;SDS011;57319;56.274;43.980;2023-07-31T05:50:28;3.25;;;0.77;;
69981;SDS011;57319;56.274;43.980;2023-07-31T05:52:54;0.70;;;0.70;;
69981;SDS011;57319;56.274;43.980;2023-07-31T05:55:19;3.13;;;0.80;;
69981;SDS011;57319;56.274;43.980;2023-07-31T05:57:46;2.03;;;1.10;;
69981;SDS011;57319;56.274;43.980;2023-07-31T06:00:12;1.13;;;1.13;;
69981;SDS011;57319;56.274;43.980;2023-07-31T06:02:38;1.45;;;0.90;;
69981;SDS011;57319;56.274;43.980;2023-07-31T06:05:04;5.22;;;0.90;;
69981;SDS011;57319;56.274;43.980;2023-07-31T06:07:31;0.90;;;0.90;;
69981;SDS011;57319;56.274;43.980;2023-07-31T06:09:57;2.35;;;0.90;;
69981;SDS011;57319;56.274;43.980;2023-07-31T06:12:28;2.35;;;0.85;;
69981;SDS011;57319;56.274;43.980;2023-07-31T06:14:54;1.35;;;1.05;;
69981;SDS011;57319;56.274;43.980;2023-07-31T06:17:20;1.25;;;1.15;;
69981;SDS011;57319;56.274;43.980;2023-07-31T06:19:46;1.08;;;1.08;;
69981;SDS011;57319;56.274;43.980;2023-07-31T06:22:12;1.95;;;1.10;;
69981;SDS011;57319;56.274;43.980;2023-07-31T06:24:38;2.22;;;1.33;;
69981;SDS011;57319;56.274;43.980;2023-07-31T06:27:03;1.10;;;1.10;;
69981;SDS011;57319;56.274;43.980;2023-07-31T06:29:31;5.07;;;1.20;;
69981;SDS011;57319;56.274;43.980;2023-07-31T06:31:57;5.38;;;1.38;;
69981;SDS011;57319;56.274;43.980;2023-07-31T06:34:22;1.20;;;1.20;;
69981;SDS011;57319;56.274;43.980;2023-07-31T06:36:48;1.20;;;1.20;;
69981;SDS011;57319;56.274;43.980;2023-07-31T06:39:14;1.40;;;1.30;;
69981;SDS011;57319;56.274;43.980;2023-07-31T06:41:39;1.15;;;1.15;;
69981;SDS011;57319;56.274;43.980;2023-07-31T06:44:05;3.38;;;1.40;;
69981;SDS011;57319;56.274;43.980;2023-07-31T06:46:31;5.57;;;1.30;;
69981;SDS011;57319;56.274;43.980;2023-07-31T06:48:56;1.42;;;1.42;;
69981;SDS011;57319;56.274;43.980;2023-07-31T06:51:22;1.85;;;1.33;;
69981;SDS011;57319;56.274;43.980;2023-07-31T06:53:48;6.47;;;1.50;;
69981;SDS011;57319;56.274;43.980;2023-07-31T06:56:13;1.80;;;1.70;;
69981;SDS011;57319;56.274;43.980;2023-07-31T06:58:39;1.67;;;1.58;;
69981;SDS011;57319;56.274;43.980;2023-07-31T07:01:05;2.03;;;1.75;;
69981;SDS011;57319;56.274;43.980;2023-07-31T07:03:30;3.42;;;1.88;;
69981;SDS011;57319;56.274;43.980;2023-07-31T07:05:57;1.80;;;1.70;;
69981;SDS011;57319;56.274;43.980;2023-07-31T07:08:24;3.10;;;2.03;;
69981;SDS011;57319;56.274;43.980;2023-07-31T07:10:50;4.20;;;2.05;;
69981;SDS011;57319;56.274;43.980;2023-07-31T07:13:15;2.30;;;2.00;;
69981;SDS011;57319;56.274;43.980;2023-07-31T07:15:43;3.90;;;2.30;;
69981;SDS011;57319;56.274;43.980;2023-07-31T07:18:14;3.45;;;2.30;;
69981;SDS011;57319;56.274;43.980;2023-07-31T07:20:39;2.17;;;2.13;;
69981;SDS011;57319;56.274;43.980;2023-07-31T07:23:05;3.08;;;2.17;;
69981;SDS011;57319;56.274;43.980;2023-07-31T07:25:31;2.35;;;2.17;;
69981;SDS011;57319;56.274;43.980;2023-07-31T07:27:57;2.30;;;2.20;;
69981;SDS011;57319;56.274;43.980;2023-07-31T07:30:22;2.55;;;2.35;;
69981;SDS011;57319;56.274;43.980;2023-07-31T07:32:50;2.90;;;2.70;;
69981;SDS011;57319;56.274;43.980;2023-07-31T07:35:16;2.92;;;2.60;;
69981;SDS011;57319;56.274;43.980;2023-07-31T07:37:41;4.13;;;2.58;;
69981;SDS011;57319;56.274;43.980;2023-07-31T07:40:07;3.42;;;3.17;;
69981;SDS011;57319;56.274;43.980;2023-07-31T07:42:33;3.58;;;3.30;;
69981;SDS011;57319;56.274;43.980;2023-07-31T07:44:59;10.02;;;3.42;;
69981;SDS011;57319;56.274;43.980;2023-07-31T07:47:25;4.00;;;3.22;;
69981;SDS011;57319;56.274;43.980;2023-07-31T07:49:50;3.75;;;3.10;;
69981;SDS011;57319;56.274;43.980;2023-07-31T07:52:16;4.97;;;3.75;;
69981;SDS011;57319;56.274;43.980;2023-07-31T07:54:41;6.13;;;3.65;;
69981;SDS011;57319;56.274;43.980;2023-07-31T07:57:07;4.32;;;4.00;;
69981;SDS011;57319;56.274;43.980;2023-07-31T07:59:33;4.05;;;3.75;;
69981;SDS011;57319;56.274;43.980;2023-07-31T08:01:58;4.30;;;4.07;;
69981;SDS011;57319;56.274;43.980;2023-07-31T08:04:24;5.13;;;4.68;;
69981;SDS011;57319;56.274;43.980;2023-07-31T08:06:50;4.85;;;3.80;;
69981;SDS011;57319;56.274;43.980;2023-07-31T08:09:15;5.18;;;3.00;;
69981;SDS011;57319;56.274;43.980;2023-07-31T08:11:41;9.02;;;3.55;;
69981;SDS011;57319;56.274;43.980;2023-07-31T08:14:07;4.63;;;3.17;;
69981;SDS011;57319;56.274;43.980;2023-07-31T08:16:32;10.48;;;3.47;;
69981;SDS011;57319;56.274;43.980;2023-07-31T08:18:58;4.75;;;3.45;;
69981;SDS011;57319;56.274;43.980;2023-07-31T08:21:24;6.90;;;3.35;;
69981;SDS011;57319;56.274;43.980;2023-07-31T08:23:50;8.60;;;3.38;;
69981;SDS011;57319;56.274;43.980;2023-07-31T08:26:16;5.07;;;3.28;;
69981;SDS011;57319;56.274;43.980;2023-07-31T08:28:43;3.70;;;3.28;;
69981;SDS011;57319;56.274;43.980;2023-07-31T08:31:09;3.97;;;3.63;;
69981;SDS011;57319;56.274;43.980;2023-07-31T08:33:35;2.45;;;2.35;;
69981;SDS011;57319;56.274;43.980;2023-07-31T08:36:02;3.05;;;2.85;;
69981;SDS011;57319;56.274;43.980;2023-07-31T08:38:28;3.40;;;2.60;;
69981;SDS011;57319;56.274;43.980;2023-07-31T08:40:56;2.63;;;2.45;;
69981;SDS011;57319;56.274;43.980;2023-07-31T08:43:22;4.18;;;2.90;;
69981;SDS011;57319;56.274;43.980;2023-07-31T08:45:51;2.47;;;2.38;;
69981;SDS011;57319;56.274;43.980;2023-07-31T08:48:17;9.43;;;2.45;;
69981;SDS011;57319;56.274;43.980;2023-07-31T08:50:44;2.67;;;2.47;;
69981;SDS011;57319;56.274;43.980;2023-07-31T08:53:10;4.18;;;2.45;;
69981;SDS011;57319;56.274;43.980;2023-07-31T08:55:37;6.25;;;2.95;;
69981;SDS011;57319;56.274;43.980;2023-07-31T08:58:03;2.97;;;2.65;;
69981;SDS011;57319;56.274;43.980;2023-07-31T09:00:33;5.93;;;3.20;;
69981;SDS011;57319;56.274;43.980;2023-07-31T09:03:08;10.13;;;3.25;;
69981;SDS011;57319;56.274;43.980;2023-07-31T09:05:38;3.78;;;2.65;;
69981;SDS011;57319;56.274;43.980;2023-07-31T09:08:05;13.35;;;3.17;;
69981;SDS011;57319;56.274;43.980;2023-07-31T09:10:34;2.42;;;2.20;;
69981;SDS011;57319;56.274;43.980;2023-07-31T09:13:00;4.03;;;2.42;;
69981;SDS011;57319;56.274;43.980;2023-07-31T09:15:27;3.25;;;2.70;;
69981;SDS011;57319;56.274;43.980;2023-07-31T09:18:03;5.18;;;2.75;;
69981;SDS011;57319;56.274;43.980;2023-07-31T09:20:30;3.17;;;2.13;;
69981;SDS011;57319;56.274;43.980;2023-07-31T09:23:07;2.33;;;2.13;;
69981;SDS011;57319;56.274;43.980;2023-07-31T09:25:35;6.55;;;1.90;;
69981;SDS011;57319;56.274;43.980;2023-07-31T09:28:08;3.35;;;2.28;;
69981;SDS011;57319;56.274;43.980;2023-07-31T09:30:48;5.63;;;2.80;;
69981;SDS011;57319;56.274;43.980;2023-07-31T09:33:15;3.80;;;2.22;;
69981;SDS011;57319;56.274;43.980;2023-07-31T09:35:41;2.60;;;2.40;;
69981;SDS011;57319;56.274;43.980;2023-07-31T09:38:11;4.28;;;2.55;;
69981;SDS011;57319;56.274;43.980;2023-07-31T09:40:39;2.83;;;2.10;;
69981;SDS011;57319;56.274;43.980;2023-07-31T09:43:07;6.70;;;2.30;;
69981;SDS011;57319;56.274;43.980;2023-07-31T09:45:37;6.10;;;2.30;;
69981;SDS011;57319;56.274;43.980;2023-07-31T09:48:08;2.40;;;2.30;;
69981;SDS011;57319;56.274;43.980;2023-07-31T09:50:39;2.60;;;2.50;;
69981;SDS011;57319;56.274;43.980;2023-07-31T09:53:07;5.50;;;2.42;;
69981;SDS011;57319;56.274;43.980;2023-07-31T09:55:36;4.90;;;2.53;;
69981;SDS011;57319;56.274;43.980;2023-07-31T09:58:06;10.52;;;2.85;;
69981;SDS011;57319;56.274;43.980;2023-07-31T10:00:33;3.63;;;2.53;;
69981;SDS011;57319;56.274;43.980;2023-07-31T10:03:01;3.85;;;2.40;;
69981;SDS011;57319;56.274;43.980;2023-07-31T10:05:40;5.13;;;2.40;;
69981;SDS011;57319;56.274;43.980;2023-07-31T10:08:09;2.28;;;2.17;;
69981;SDS011;57319;56.274;43.980;2023-07-31T10:10:36;5.57;;;2.40;;
69981;SDS011;57319;56.274;43.980;2023-07-31T10:13:02;4.00;;;2.28;;
69981;SDS011;57319;56.274;43.980;2023-07-31T10:15:30;5.10;;;2.45;;
69981;SDS011;57319;56.274;43.980;2023-07-31T10:17:57;5.93;;;2.30;;
69981;SDS011;57319;56.274;43.980;2023-07-31T10:20:24;2.80;;;2.55;;
69981;SDS011;57319;56.274;43.980;2023-07-31T10:22:52;7.05;;;3.38;;
69981;SDS011;57319;56.274;43.980;2023-07-31T10:25:22;2.50;;;2.30;;
69981;SDS011;57319;56.274;43.980;2023-07-31T10:27:49;6.38;;;4.50;;
69981;SDS011;57319;56.274;43.980;2023-07-31T10:30:16;5.55;;;3.10;;
69981;SDS011;57319;56.274;43.980;2023-07-31T10:32:44;3.20;;;2.75;;
69981;SDS011;57319;56.274;43.980;2023-07-31T10:35:11;3.15;;;2.58;;
69981;SDS011;57319;56.274;43.980;2023-07-31T10:37:37;3.53;;;2.55;;
69981;SDS011;57319;56.274;43.980;2023-07-31T10:40:05;5.38;;;2.40;;
69981;SDS011;57319;56.274;43.980;2023-07-31T10:42:48;6.35;;;2.40;;
69981;SDS011;57319;56.274;43.980;2023-07-31T10:48:15;3.35;;;3.15;;
69981;SDS011;57319;56.274;43.980;2023-07-31T10:53:24;6.47;;;2.28;;
69981;SDS011;57319;56.274;43.980;2023-07-31T10:55:50;4.53;;;2.00;;
69981;SDS011;57319;56.274;43.980;2023-07-31T10:58:18;4.07;;;2.30;;
69981;SDS011;57319;56.274;43.980;2023-07-31T11:00:45;9.05;;;2.13;;
69981;SDS011;57319;56.274;43.980;2023-07-31T11:03:15;4.22;;;2.25;;
69981;SDS011;57319;56.274;43.980;2023-07-31T11:08:24;4.65;;;2.17;;
69981;SDS011;57319;56.274;43.980;2023-07-31T11:16:06;11.35;;;3.88;;
69981;SDS011;57319;56.274;43.980;2023-07-31T11:18:33;24.23;;;10.15;;
69981;SDS011;57319;56.274;43.980;2023-07-31T11:20:58;13.43;;;4.93;;
69981;SDS011;57319;56.274;43.980;2023-07-31T11:23:24;7.60;;;3.28;;
69981;SDS011;57319;56.274;43.980;2023-07-31T11:25:50;3.17;;;2.97;;
69981;SDS011;57319;56.274;43.980;2023-07-31T11:28:17;3.45;;;3.17;;
69981;SDS011;57319;56.274;43.980;2023-07-31T11:30:45;9.65;;;4.47;;
69981;SDS011;57319;56.274;43.980;2023-07-31T11:33:12;6.13;;;4.45;;
69981;SDS011;57319;56.274;43.980;2023-07-31T11:35:42;11.25;;;3.60;;
69981;SDS011;57319;56.274;43.980;2023-07-31T11:38:11;7.47;;;2.05;;
69981;SDS011;57319;56.274;43.980;2023-07-31T11:40:48;7.22;;;2.85;;
69981;SDS011;57319;56.274;43.980;2023-07-31T11:43:14;2.40;;;2.20;;
69981;SDS011;57319;56.274;43.980;2023-07-31T11:45:52;1.98;;;1.88;;
69981;SDS011;57319;56.274;43.980;2023-07-31T11:48:26;6.07;;;3.85;;
69981;SDS011;57319;56.274;43.980;2023-07-31T11:51:05;2.15;;;1.95;;
69981;SDS011;57319;56.274;43.980;2023-07-31T11:56:17;2.30;;;2.17;;
69981;SDS011;57319;56.274;43.980;2023-07-31T11:58:45;4.47;;;3.72;;
69981;SDS011;57319;56.274;43.980;2023-07-31T12:01:14;7.25;;;2.90;;
69981;SDS011;57319;56.274;43.980;2023-07-31T12:03:40;1.40;;;1.40;;
69981;SDS011;57319;56.274;43.980;2023-07-31T12:06:08;2.67;;;1.80;;
69981;SDS011;57319;56.274;43.980;2023-07-31T12:08:34;1.98;;;1.88;;
69981;SDS011;57319;56.274;43.980;2023-07-31T12:11:03;2.45;;;1.58;;
69981;SDS011;57319;56.274;43.980;2023-07-31T12:13:30;4.10;;;3.25;;
69981;SDS011;57319;56.274;43.980;2023-07-31T12:15:58;5.45;;;3.40;;
69981;SDS011;57319;56.274;43.980;2023-07-31T12:18:26;11.23;;;4.85;;
69981;SDS011;57319;56.274;43.980;2023-07-31T12:23:26;1.95;;;1.15;;
69981;SDS011;57319;56.274;43.980;2023-07-31T12:26:02;9.55;;;2.15;;
69981;SDS011;57319;56.274;43.980;2023-07-31T12:28:35;5.50;;;2.13;;
69981;SDS011;57319;56.274;43.980;2023-07-31T12:31:11;12.38;;;1.73;;
69981;SDS011;57319;56.274;43.980;2023-07-31T12:33:43;3.13;;;1.60;;
69981;SDS011;57319;56.274;43.980;2023-07-31T12:36:10;5.95;;;2.55;;
69981;SDS011;57319;56.274;43.980;2023-07-31T12:38:37;8.38;;;1.65;;
69981;SDS011;57319;56.274;43.980;2023-07-31T12:41:03;6.35;;;1.80;;
69981;SDS011;57319;56.274;43.980;2023-07-31T12:43:31;6.63;;;2.13;;
69981;SDS011;57319;56.274;43.980;2023-07-31T12:45:57;5.97;;;1.80;;
69981;SDS011;57319;56.274;43.980;2023-07-31T12:48:23;2.22;;;1.73;;
69981;SDS011;57319;56.274;43.980;2023-07-31T12:50:48;3.67;;;1.80;;
69981;SDS011;57319;56.274;43.980;2023-07-31T12:53:17;2.65;;;1.70;;
69981;SDS011;57319;56.274;43.980;2023-07-31T12:55:43;2.13;;;1.90;;
69981;SDS011;57319;56.274;43.980;2023-07-31T12:58:09;3.70;;;1.92;;
69981;SDS011;57319;56.274;43.980;2023-07-31T13:00:34;2.03;;;1.88;;
69981;SDS011;57319;56.274;43.980;2023-07-31T13:03:00;5.72;;;2.20;;
69981;SDS011;57319;56.274;43.980;2023-07-31T13:05:26;2.35;;;1.85;;
69981;SDS011;57319;56.274;43.980;2023-07-31T13:07:53;7.78;;;1.98;;
69981;SDS011;57319;56.274;43.980;2023-07-31T13:10:19;2.60;;;2.13;;
69981;SDS011;57319;56.274;43.980;2023-07-31T13:12:45;2.80;;;1.75;;
69981;SDS011;57319;56.274;43.980;2023-07-31T13:15:11;2.45;;;1.73;;
69981;SDS011;57319;56.274;43.980;2023-07-31T13:17:37;2.40;;;1.90;;
69981;SDS011;57319;56.274;43.980;2023-07-31T13:20:03;5.80;;;1.90;;
69981;SDS011;57319;56.274;43.980;2023-07-31T13:22:31;8.25;;;2.80;;
69981;SDS011;57319;56.274;43.980;2023-07-31T13:24:58;8.60;;;2.20;;
69981;SDS011;57319;56.274;43.980;2023-07-31T13:27:23;7.82;;;2.15;;
69981;SDS011;57319;56.274;43.980;2023-07-31T13:29:53;2.80;;;2.47;;
69981;SDS011;57319;56.274;43.980;2023-07-31T13:32:19;2.38;;;2.05;;
69981;SDS011;57319;56.274;43.980;2023-07-31T13:34:46;11.18;;;2.08;;
69981;SDS011;57319;56.274;43.980;2023-07-31T13:37:13;2.10;;;1.98;;
69981;SDS011;57319;56.274;43.980;2023-07-31T13:39:39;3.03;;;2.25;;
69981;SDS011;57319;56.274;43.980;2023-07-31T13:42:05;2.88;;;1.70;;
69981;SDS011;57319;56.274;43.980;2023-07-31T13:44:36;3.22;;;1.73;;
69981;SDS011;57319;56.274;43.980;2023-07-31T13:47:05;5.88;;;2.15;;
69981;SDS011;57319;56.274;43.980;2023-07-31T13:49:32;1.85;;;1.85;;
69981;SDS011;57319;56.274;43.980;2023-07-31T13:51:58;2.63;;;2.05;;
69981;SDS011;57319;56.274;43.980;2023-07-31T13:54:24;7.47;;;2.13;;
69981;SDS011;57319;56.274;43.980;2023-07-31T13:56:51;1.98;;;1.88;;
69981;SDS011;57319;56.274;43.980;2023-07-31T13:59:17;5.97;;;2.30;;
69981;SDS011;57319;56.274;43.980;2023-07-31T14:01:43;2.17;;;2.08;;
69981;SDS011;57319;56.274;43.980;2023-07-31T14:04:09;2.65;;;2.20;;
69981;SDS011;57319;56.274;43.980;2023-07-31T14:06:35;4.40;;;1.90;;
69981;SDS011;57319;56.274;43.980;2023-07-31T14:09:01;5.50;;;1.90;;
69981;SDS011;57319;56.274;43.980;2023-07-31T14:11:28;4.72;;;2.42;;
69981;SDS011;57319;56.274;43.980;2023-07-31T14:13:54;1.98;;;1.80;;
69981;SDS011;57319;56.274;43.980;2023-07-31T14:16:21;2.67;;;2.40;;
69981;SDS011;57319;56.274;43.980;2023-07-31T14:18:47;2.63;;;2.42;;
69981;SDS011;57319;56.274;43.980;2023-07-31T14:21:13;4.63;;;2.70;;
69981;SDS011;57319;56.274;43.980;2023-07-31T14:23:39;3.05;;;2.72;;
69981;SDS011;57319;56.274;43.980;2023-07-31T14:26:05;12.15;;;4.70;;
69981;SDS011;57319;56.274;43.980;2023-07-31T14:28:31;5.07;;;2.35;;
69981;SDS011;57319;56.274;43.980;2023-07-31T14:30:56;3.45;;;3.17;;
69981;SDS011;57319;56.274;43.980;2023-07-31T14:33:22;7.88;;;2.53;;
69981;SDS011;57319;56.274;43.980;2023-07-31T14:35:47;2.58;;;2.38;;
69981;SDS011;57319;56.274;43.980;2023-07-31T14:38:13;3.88;;;2.50;;
69981;SDS011;57319;56.274;43.980;2023-07-31T14:40:39;4.55;;;2.65;;
69981;SDS011;57319;56.274;43.980;2023-07-31T14:43:05;2.33;;;2.15;;
69981;SDS011;57319;56.274;43.980;2023-07-31T14:45:30;2.35;;;2.22;;
69981;SDS011;57319;56.274;43.980;2023-07-31T14:47:56;4.30;;;3.00;;
69981;SDS011;57319;56.274;43.980;2023-07-31T14:50:21;2.42;;;2.20;;
69981;SDS011;57319;56.274;43.980;2023-07-31T14:52:48;4.05;;;2.72;;
69981;SDS011;57319;56.274;43.980;2023-07-31T14:55:14;2.75;;;2.55;;
69981;SDS011;57319;56.274;43.980;2023-07-31T14:57:40;4.35;;;2.72;;
69981;SDS011;57319;56.274;43.980;2023-07-31T15:00:06;9.63;;;3.10;;